Milwaukee, WI (53201)

3:38 AM CDT on August 29, 2016 (GMT -0500)
Sailing Center | | Change Station

Elev 594 ft 43.05 °N, 87.89 °W | Updated 15 seconds ago

Fog
Fog
69.3 °F
Feels Like 69.3 °F
N
4.8
Wind Variable Wind from North
Gusts 4.9 mph

Today
High -- | Low -- °F
--% Chance of Precip.
Yesterday
High -- | Low -- °F
Precip. -- in
Pressure 30.23 in
Visibility 0.5 miles
Clouds
Dew Point 68 °F
Humidity 94%
Rainfall 0.00 in
Snow Depth Not available.
6:13 AM 7:30 PM
Waning Crescent, 10% visible
SPECI KMKE 290829Z 02003KT 1/2SM FG VV001 19/19 A3023 RMK AO2 T01940189 RVRNO
Pressure 30.23 in
Visibility 0.5 miles
Clouds
Dew Point 68 °F
Humidity 94%
Rainfall 0.00 in
Snow Depth Not available.
6:13 AM 7:30 PM
Waning Crescent, 10% visible
SPECI KMKE 290829Z 02003KT 1/2SM FG VV001 19/19 A3023 RMK AO2 T01940189 RVRNO

10-Day Weather Forecast

Almanac

Astronomy

Aug. 29, 2016 Rise Set
Actual Time
Civil Twilight
Nautical Twilight
Astronomical Twilight
Moon
Length of Visible Light
Length of Day
Tomorrow will be .
, % of the Moon is Illuminated

Today's Extremes

State Highs State Lows

Community

WunderPhotos

Upload Photos

1,935,800 photos uploaded!

WunderBlog® & News

Nearby

Air Quality

  Air Quality AQ Index Pollutant
Not available.

Snow Depth

Station Depth Elevation

Earthquake Activity

City Distance Mag. Time & Date
Minimum magnitude displayed is 2.5.

Coastal Water Temperatures

Place Temperature

Stations

Nearby Weather Stations

Station Location Temp. Windchill Dew Point Humidity Wind Precip. Elev Updated Type
                   

Watches & Warnings

There are currently no watches in effect.